sensor_id;sensor_type;location;lat;lon;timestamp;temperature;humidity
10583;DHT22;33679;51.218;6.786;2023-11-19T00:00:31;13.40;99.90
10583;DHT22;33679;51.218;6.786;2023-11-19T00:03:05;13.40;99.90
10583;DHT22;33679;51.218;6.786;2023-11-19T00:05:46;13.40;99.90
10583;DHT22;33679;51.218;6.786;2023-11-19T00:08:19;13.50;99.90
10583;DHT22;33679;51.218;6.786;2023-11-19T00:10:54;13.50;99.90
10583;DHT22;33679;51.218;6.786;2023-11-19T00:13:27;13.50;99.90
10583;DHT22;33679;51.218;6.786;2023-11-19T00:16:03;13.60;99.90
10583;DHT22;33679;51.218;6.786;2023-11-19T00:18:42;13.60;99.90
10583;DHT22;33679;51.218;6.786;2023-11-19T00:21:19;13.60;99.90
10583;DHT22;33679;51.218;6.786;2023-11-19T00:23:55;13.60;99.90
10583;DHT22;33679;51.218;6.786;2023-11-19T00:26:29;13.60;99.90
10583;DHT22;33679;51.218;6.786;2023-11-19T00:29:02;13.70;99.90
10583;DHT22;33679;51.218;6.786;2023-11-19T00:31:35;13.80;99.90
10583;DHT22;33679;51.218;6.786;2023-11-19T00:34:08;13.80;99.90
10583;DHT22;33679;51.218;6.786;2023-11-19T00:36:41;13.90;99.90
10583;DHT22;33679;51.218;6.786;2023-11-19T00:39:18;13.90;99.90
10583;DHT22;33679;51.218;6.786;2023-11-19T00:41:52;14.00;99.90
10583;DHT22;33679;51.218;6.786;2023-11-19T00:44:24;14.00;99.90
10583;DHT22;33679;51.218;6.786;2023-11-19T00:46:57;14.00;99.90
10583;DHT22;33679;51.218;6.786;2023-11-19T00:49:32;14.00;99.90
10583;DHT22;33679;51.218;6.786;2023-11-19T00:52:19;14.10;99.90
10583;DHT22;33679;51.218;6.786;2023-11-19T00:54:53;14.10;99.90
10583;DHT22;33679;51.218;6.786;2023-11-19T00:57:28;14.10;99.90
10583;DHT22;33679;51.218;6.786;2023-11-19T01:00:01;14.20;99.90
10583;DHT22;33679;51.218;6.786;2023-11-19T01:02:39;14.30;99.90
10583;DHT22;33679;51.218;6.786;2023-11-19T01:05:13;14.30;99.90
10583;DHT22;33679;51.218;6.786;2023-11-19T01:07:46;14.40;99.90
10583;DHT22;33679;51.218;6.786;2023-11-19T01:10:18;14.40;99.90
10583;DHT22;33679;51.218;6.786;2023-11-19T01:12:51;14.40;99.90
10583;DHT22;33679;51.218;6.786;2023-11-19T01:15:23;14.50;99.90
10583;DHT22;33679;51.218;6.786;2023-11-19T01:17:56;14.50;99.90
10583;DHT22;33679;51.218;6.786;2023-11-19T01:20:29;14.50;99.90
10583;DHT22;33679;51.218;6.786;2023-11-19T01:23:01;14.50;99.90
10583;DHT22;33679;51.218;6.786;2023-11-19T01:25:34;14.50;99.90
10583;DHT22;33679;51.218;6.786;2023-11-19T01:28:13;14.50;99.90
10583;DHT22;33679;51.218;6.786;2023-11-19T01:30:45;14.60;99.90
10583;DHT22;33679;51.218;6.786;2023-11-19T01:33:18;14.70;99.90
10583;DHT22;33679;51.218;6.786;2023-11-19T01:35:53;14.70;99.90
10583;DHT22;33679;51.218;6.786;2023-11-19T01:38:31;14.70;99.90
10583;DHT22;33679;51.218;6.786;2023-11-19T01:41:12;14.70;99.90
10583;DHT22;33679;51.218;6.786;2023-11-19T01:43:50;14.80;99.90
10583;DHT22;33679;51.218;6.786;2023-11-19T01:46:26;14.70;99.90
10583;DHT22;33679;51.218;6.786;2023-11-19T01:48:59;14.70;99.90
10583;DHT22;33679;51.218;6.786;2023-11-19T01:51:35;14.80;99.90
10583;DHT22;33679;51.218;6.786;2023-11-19T01:54:08;14.70;99.90
10583;DHT22;33679;51.218;6.786;2023-11-19T01:56:44;14.80;99.90
10583;DHT22;33679;51.218;6.786;2023-11-19T01:59:20;14.80;99.90
10583;DHT22;33679;51.218;6.786;2023-11-19T02:01:59;14.90;99.90
10583;DHT22;33679;51.218;6.786;2023-11-19T02:04:31;14.90;99.90
10583;DHT22;33679;51.218;6.786;2023-11-19T02:07:06;14.90;99.90
10583;DHT22;33679;51.218;6.786;2023-11-19T02:09:42;14.90;99.90
10583;DHT22;33679;51.218;6.786;2023-11-19T02:12:15;14.90;99.90
10583;DHT22;33679;51.218;6.786;2023-11-19T02:14:47;14.90;99.90
10583;DHT22;33679;51.218;6.786;2023-11-19T02:17:26;14.90;99.90
10583;DHT22;33679;51.218;6.786;2023-11-19T02:19:59;14.90;99.90
10583;DHT22;33679;51.218;6.786;2023-11-19T02:22:34;14.90;99.90
10583;DHT22;33679;51.218;6.786;2023-11-19T02:25:15;14.90;99.90
10583;DHT22;33679;51.218;6.786;2023-11-19T02:27:53;14.90;99.90
10583;DHT22;33679;51.218;6.786;2023-11-19T02:30:28;14.90;99.90
10583;DHT22;33679;51.218;6.786;2023-11-19T02:33:00;14.90;99.90
10583;DHT22;33679;51.218;6.786;2023-11-19T02:35:38;14.90;99.90
10583;DHT22;33679;51.218;6.786;2023-11-19T02:38:11;14.80;99.90
10583;DHT22;33679;51.218;6.786;2023-11-19T02:40:45;14.90;99.90
10583;DHT22;33679;51.218;6.786;2023-11-19T02:43:19;14.90;99.90
10583;DHT22;33679;51.218;6.786;2023-11-19T02:45:51;14.90;99.90
10583;DHT22;33679;51.218;6.786;2023-11-19T02:48:26;14.90;99.90
10583;DHT22;33679;51.218;6.786;2023-11-19T02:51:11;14.90;99.90
10583;DHT22;33679;51.218;6.786;2023-11-19T02:53:44;14.90;99.90
10583;DHT22;33679;51.218;6.786;2023-11-19T02:56:19;14.90;99.90
10583;DHT22;33679;51.218;6.786;2023-11-19T02:58:57;14.90;99.90
10583;DHT22;33679;51.218;6.786;2023-11-19T03:01:30;15.00;99.90
10583;DHT22;33679;51.218;6.786;2023-11-19T03:04:06;15.00;99.90
10583;DHT22;33679;51.218;6.786;2023-11-19T03:07:28;15.00;99.90
10583;DHT22;33679;51.218;6.786;2023-11-19T03:10:00;15.00;99.90
10583;DHT22;33679;51.218;6.786;2023-11-19T03:12:32;15.00;99.90
10583;DHT22;33679;51.218;6.786;2023-11-19T03:15:08;15.00;99.90
10583;DHT22;33679;51.218;6.786;2023-11-19T03:17:41;15.00;99.90
10583;DHT22;33679;51.218;6.786;2023-11-19T03:20:14;15.00;99.90
10583;DHT22;33679;51.218;6.786;2023-11-19T03:22:47;15.00;99.90
10583;DHT22;33679;51.218;6.786;2023-11-19T03:25:21;15.00;99.90
10583;DHT22;33679;51.218;6.786;2023-11-19T03:27:54;15.00;99.90
10583;DHT22;33679;51.218;6.786;2023-11-19T03:30:27;15.00;99.90
10583;DHT22;33679;51.218;6.786;2023-11-19T03:33:00;15.00;99.90
10583;DHT22;33679;51.218;6.786;2023-11-19T03:35:33;15.10;99.90
10583;DHT22;33679;51.218;6.786;2023-11-19T03:38:05;15.00;99.90
10583;DHT22;33679;51.218;6.786;2023-11-19T03:40:37;15.00;99.90
10583;DHT22;33679;51.218;6.786;2023-11-19T03:43:10;15.00;99.90
10583;DHT22;33679;51.218;6.786;2023-11-19T03:45:45;15.10;99.90
10583;DHT22;33679;51.218;6.786;2023-11-19T03:48:18;15.10;99.90
10583;DHT22;33679;51.218;6.786;2023-11-19T03:50:51;15.10;99.90
10583;DHT22;33679;51.218;6.786;2023-11-19T03:53:23;15.10;99.90
10583;DHT22;33679;51.218;6.786;2023-11-19T03:55:56;15.10;99.90
10583;DHT22;33679;51.218;6.786;2023-11-19T03:58:28;15.20;99.90
10583;DHT22;33679;51.218;6.786;2023-11-19T04:01:11;15.20;99.90
10583;DHT22;33679;51.218;6.786;2023-11-19T04:03:45;15.20;99.90
10583;DHT22;33679;51.218;6.786;2023-11-19T04:06:17;15.20;99.90
10583;DHT22;33679;51.218;6.786;2023-11-19T04:08:50;15.30;99.90
10583;DHT22;33679;51.218;6.786;2023-11-19T04:11:23;15.30;99.90
10583;DHT22;33679;51.218;6.786;2023-11-19T04:13:55;15.30;99.90
10583;DHT22;33679;51.218;6.786;2023-11-19T04:16:31;15.30;99.90
10583;DHT22;33679;51.218;6.786;2023-11-19T04:19:03;15.30;99.90
10583;DHT22;33679;51.218;6.786;2023-11-19T04:21:35;15.30;99.90
10583;DHT22;33679;51.218;6.786;2023-11-19T04:24:09;15.30;99.90
10583;DHT22;33679;51.218;6.786;2023-11-19T04:26:44;15.20;99.90
10583;DHT22;33679;51.218;6.786;2023-11-19T04:29:17;15.20;99.90
10583;DHT22;33679;51.218;6.786;2023-11-19T04:31:53;15.20;99.90
10583;DHT22;33679;51.218;6.786;2023-11-19T04:34:26;15.20;99.90
10583;DHT22;33679;51.218;6.786;2023-11-19T04:36:59;15.20;99.90
10583;DHT22;33679;51.218;6.786;2023-11-19T04:39:36;15.20;99.90
10583;DHT22;33679;51.218;6.786;2023-11-19T04:42:09;15.20;99.90
10583;DHT22;33679;51.218;6.786;2023-11-19T04:44:43;15.20;99.90
10583;DHT22;33679;51.218;6.786;2023-11-19T04:47:16;15.10;99.90
10583;DHT22;33679;51.218;6.786;2023-11-19T04:49:49;15.10;99.90
10583;DHT22;33679;51.218;6.786;2023-11-19T04:52:21;15.10;99.90
10583;DHT22;33679;51.218;6.786;2023-11-19T04:54:55;15.10;99.90
10583;DHT22;33679;51.218;6.786;2023-11-19T04:57:27;15.00;99.90
10583;DHT22;33679;51.218;6.786;2023-11-19T05:00:00;15.00;99.90
10583;DHT22;33679;51.218;6.786;2023-11-19T05:02:54;15.00;99.90
10583;DHT22;33679;51.218;6.786;2023-11-19T05:05:26;15.00;99.90
10583;DHT22;33679;51.218;6.786;2023-11-19T05:07:59;15.00;99.90
10583;DHT22;33679;51.218;6.786;2023-11-19T05:10:32;14.90;99.90
10583;DHT22;33679;51.218;6.786;2023-11-19T05:13:04;15.00;99.90
10583;DHT22;33679;51.218;6.786;2023-11-19T05:15:36;14.90;99.90
10583;DHT22;33679;51.218;6.786;2023-11-19T05:18:10;14.80;99.90
10583;DHT22;33679;51.218;6.786;2023-11-19T05:20:45;14.80;99.90
10583;DHT22;33679;51.218;6.786;2023-11-19T05:23:17;14.80;99.90
10583;DHT22;33679;51.218;6.786;2023-11-19T05:25:51;14.80;99.90
10583;DHT22;33679;51.218;6.786;2023-11-19T05:28:23;14.80;99.90
10583;DHT22;33679;51.218;6.786;2023-11-19T05:30:57;14.80;99.90
10583;DHT22;33679;51.218;6.786;2023-11-19T05:33:32;14.70;99.90
10583;DHT22;33679;51.218;6.786;2023-11-19T05:36:06;14.70;99.90
10583;DHT22;33679;51.218;6.786;2023-11-19T05:38:39;14.70;99.90
10583;DHT22;33679;51.218;6.786;2023-11-19T05:41:11;14.70;99.90
10583;DHT22;33679;51.218;6.786;2023-11-19T05:43:43;14.60;99.90
10583;DHT22;33679;51.218;6.786;2023-11-19T05:46:16;14.60;99.90
10583;DHT22;33679;51.218;6.786;2023-11-19T05:48:49;14.60;99.90
10583;DHT22;33679;51.218;6.786;2023-11-19T05:51:23;14.60;99.90
10583;DHT22;33679;51.218;6.786;2023-11-19T05:53:56;14.60;99.90
10583;DHT22;33679;51.218;6.786;2023-11-19T05:56:28;14.50;99.90
10583;DHT22;33679;51.218;6.786;2023-11-19T05:59:03;14.60;99.90
10583;DHT22;33679;51.218;6.786;2023-11-19T06:01:38;14.50;99.90
10583;DHT22;33679;51.218;6.786;2023-11-19T06:04:15;14.50;99.90
10583;DHT22;33679;51.218;6.786;2023-11-19T06:06:47;14.50;99.90
10583;DHT22;33679;51.218;6.786;2023-11-19T06:09:20;14.60;99.90
10583;DHT22;33679;51.218;6.786;2023-11-19T06:11:53;14.50;99.90
10583;DHT22;33679;51.218;6.786;2023-11-19T06:14:28;14.50;99.90
10583;DHT22;33679;51.218;6.786;2023-11-19T06:17:04;14.50;99.90
10583;DHT22;33679;51.218;6.786;2023-11-19T06:19:38;14.60;99.90
10583;DHT22;33679;51.218;6.786;2023-11-19T06:22:11;14.60;99.90
10583;DHT22;33679;51.218;6.786;2023-11-19T06:24:43;14.70;99.90
10583;DHT22;33679;51.218;6.786;2023-11-19T06:27:15;14.60;99.90
10583;DHT22;33679;51.218;6.786;2023-11-19T06:29:48;14.60;99.90
10583;DHT22;33679;51.218;6.786;2023-11-19T06:32:21;14.60;99.90
10583;DHT22;33679;51.218;6.786;2023-11-19T06:34:55;14.50;99.90
10583;DHT22;33679;51.218;6.786;2023-11-19T06:37:31;14.40;99.90
10583;DHT22;33679;51.218;6.786;2023-11-19T06:40:18;14.40;99.90
10583;DHT22;33679;51.218;6.786;2023-11-19T06:42:52;14.40;99.90
10583;DHT22;33679;51.218;6.786;2023-11-19T06:45:25;14.40;99.90
10583;DHT22;33679;51.218;6.786;2023-11-19T06:47:57;14.40;99.90
10583;DHT22;33679;51.218;6.786;2023-11-19T06:50:46;14.40;99.90
10583;DHT22;33679;51.218;6.786;2023-11-19T06:53:21;14.40;99.90
10583;DHT22;33679;51.218;6.786;2023-11-19T06:55:53;14.40;99.90
10583;DHT22;33679;51.218;6.786;2023-11-19T06:58:26;14.30;99.90
10583;DHT22;33679;51.218;6.786;2023-11-19T07:00:59;14.30;99.90
10583;DHT22;33679;51.218;6.786;2023-11-19T07:03:31;14.30;99.90
10583;DHT22;33679;51.218;6.786;2023-11-19T07:06:05;14.30;99.90
10583;DHT22;33679;51.218;6.786;2023-11-19T07:08:41;14.30;99.90
10583;DHT22;33679;51.218;6.786;2023-11-19T07:11:19;14.30;99.90
10583;DHT22;33679;51.218;6.786;2023-11-19T07:13:51;14.20;99.90
10583;DHT22;33679;51.218;6.786;2023-11-19T07:16:25;14.20;99.90
10583;DHT22;33679;51.218;6.786;2023-11-19T07:18:57;14.10;99.90
10583;DHT22;33679;51.218;6.786;2023-11-19T07:21:32;14.10;99.90
10583;DHT22;33679;51.218;6.786;2023-11-19T07:24:08;14.10;99.90
10583;DHT22;33679;51.218;6.786;2023-11-19T07:26:42;14.10;99.90
10583;DHT22;33679;51.218;6.786;2023-11-19T07:29:15;14.10;99.90
10583;DHT22;33679;51.218;6.786;2023-11-19T07:31:48;14.10;99.90
10583;DHT22;33679;51.218;6.786;2023-11-19T07:34:21;14.10;99.90
10583;DHT22;33679;51.218;6.786;2023-11-19T07:36:55;14.20;99.90
10583;DHT22;33679;51.218;6.786;2023-11-19T07:39:30;14.20;99.90
10583;DHT22;33679;51.218;6.786;2023-11-19T07:42:04;14.20;99.90
10583;DHT22;33679;51.218;6.786;2023-11-19T07:44:37;14.10;99.90
10583;DHT22;33679;51.218;6.786;2023-11-19T07:47:10;14.10;99.90
10583;DHT22;33679;51.218;6.786;2023-11-19T07:49:43;14.20;99.90
10583;DHT22;33679;51.218;6.786;2023-11-19T07:52:17;14.20;99.90
10583;DHT22;33679;51.218;6.786;2023-11-19T07:54:53;14.30;99.90
10583;DHT22;33679;51.218;6.786;2023-11-19T07:57:25;14.30;99.90
10583;DHT22;33679;51.218;6.786;2023-11-19T08:00:03;14.30;99.90
10583;DHT22;33679;51.218;6.786;2023-11-19T08:02:43;14.30;99.90
10583;DHT22;33679;51.218;6.786;2023-11-19T08:05:16;14.40;99.90
10583;DHT22;33679;51.218;6.786;2023-11-19T08:07:49;14.40;99.90
10583;DHT22;33679;51.218;6.786;2023-11-19T08:10:23;14.40;99.90
10583;DHT22;33679;51.218;6.786;2023-11-19T08:12:55;14.50;99.90
10583;DHT22;33679;51.218;6.786;2023-11-19T08:15:28;14.50;99.90
10583;DHT22;33679;51.218;6.786;2023-11-19T08:18:00;14.50;99.90
10583;DHT22;33679;51.218;6.786;2023-11-19T08:20:33;14.50;99.90
10583;DHT22;33679;51.218;6.786;2023-11-19T08:23:07;14.50;99.90
10583;DHT22;33679;51.218;6.786;2023-11-19T08:25:39;14.60;99.90
10583;DHT22;33679;51.218;6.786;2023-11-19T08:28:12;14.60;99.90
10583;DHT22;33679;51.218;6.786;2023-11-19T08:30:47;14.50;99.90
10583;DHT22;33679;51.218;6.786;2023-11-19T08:33:27;14.60;99.90
10583;DHT22;33679;51.218;6.786;2023-11-19T08:36:00;14.60;99.90
10583;DHT22;33679;51.218;6.786;2023-11-19T08:38:36;14.70;99.90
10583;DHT22;33679;51.218;6.786;2023-11-19T08:41:09;14.80;99.90
10583;DHT22;33679;51.218;6.786;2023-11-19T08:43:41;14.80;99.90
10583;DHT22;33679;51.218;6.786;2023-11-19T08:46:15;14.70;99.90
10583;DHT22;33679;51.218;6.786;2023-11-19T08:48:48;14.80;99.90
10583;DHT22;33679;51.218;6.786;2023-11-19T08:51:21;14.80;99.90
10583;DHT22;33679;51.218;6.786;2023-11-19T08:53:54;14.90;99.90
10583;DHT22;33679;51.218;6.786;2023-11-19T08:56:27;14.90;99.90
10583;DHT22;33679;51.218;6.786;2023-11-19T08:59:03;14.90;99.90
10583;DHT22;33679;51.218;6.786;2023-11-19T09:01:36;14.90;99.90
10583;DHT22;33679;51.218;6.786;2023-11-19T09:04:08;14.90;99.90
10583;DHT22;33679;51.218;6.786;2023-11-19T09:06:40;15.00;99.90
10583;DHT22;33679;51.218;6.786;2023-11-19T09:09:14;15.00;99.90
10583;DHT22;33679;51.218;6.786;2023-11-19T09:11:47;15.00;99.90
10583;DHT22;33679;51.218;6.786;2023-11-19T09:14:19;15.00;99.90
10583;DHT22;33679;51.218;6.786;2023-11-19T09:16:55;15.00;99.90
10583;DHT22;33679;51.218;6.786;2023-11-19T09:19:27;15.00;99.90
10583;DHT22;33679;51.218;6.786;2023-11-19T09:21:59;15.00;99.90
10583;DHT22;33679;51.218;6.786;2023-11-19T09:24:34;15.00;99.90
10583;DHT22;33679;51.218;6.786;2023-11-19T09:27:06;15.00;99.90
10583;DHT22;33679;51.218;6.786;2023-11-19T09:29:40;15.00;99.90
10583;DHT22;33679;51.218;6.786;2023-11-19T09:32:14;15.00;99.90
10583;DHT22;33679;51.218;6.786;2023-11-19T09:34:48;15.10;99.90
10583;DHT22;33679;51.218;6.786;2023-11-19T09:37:20;15.10;99.90
10583;DHT22;33679;51.218;6.786;2023-11-19T09:39:54;15.10;99.90
10583;DHT22;33679;51.218;6.786;2023-11-19T09:42:27;15.20;99.90
10583;DHT22;33679;51.218;6.786;2023-11-19T09:45:00;15.30;99.90
10583;DHT22;33679;51.218;6.786;2023-11-19T09:47:34;15.40;99.90
10583;DHT22;33679;51.218;6.786;2023-11-19T09:50:16;15.30;99.90
10583;DHT22;33679;51.218;6.786;2023-11-19T09:53:06;15.40;99.90
10583;DHT22;33679;51.218;6.786;2023-11-19T09:55:41;15.40;99.90
10583;DHT22;33679;51.218;6.786;2023-11-19T09:58:15;15.40;99.90
10583;DHT22;33679;51.218;6.786;2023-11-19T10:00:47;15.50;99.90
10583;DHT22;33679;51.218;6.786;2023-11-19T10:03:22;15.50;99.90
10583;DHT22;33679;51.218;6.786;2023-11-19T10:05:57;15.60;99.90
10583;DHT22;33679;51.218;6.786;2023-11-19T10:08:30;15.60;99.90
10583;DHT22;33679;51.218;6.786;2023-11-19T10:11:04;15.70;99.90
10583;DHT22;33679;51.218;6.786;2023-11-19T10:13:37;15.70;99.90
10583;DHT22;33679;51.218;6.786;2023-11-19T10:16:13;15.70;99.90
10583;DHT22;33679;51.218;6.786;2023-11-19T10:18:46;15.70;99.90
10583;DHT22;33679;51.218;6.786;2023-11-19T10:21:18;15.80;99.90
10583;DHT22;33679;51.218;6.786;2023-11-19T10:23:51;15.70;99.90
10583;DHT22;33679;51.218;6.786;2023-11-19T10:26:26;15.80;99.90
10583;DHT22;33679;51.218;6.786;2023-11-19T10:28:59;15.90;99.90
10583;DHT22;33679;51.218;6.786;2023-11-19T10:31:33;15.80;99.90
10583;DHT22;33679;51.218;6.786;2023-11-19T10:34:24;15.90;99.90
10583;DHT22;33679;51.218;6.786;2023-11-19T10:37:01;15.90;99.90
10583;DHT22;33679;51.218;6.786;2023-11-19T10:39:52;15.90;99.90
10583;DHT22;33679;51.218;6.786;2023-11-19T10:42:37;15.90;99.90
10583;DHT22;33679;51.218;6.786;2023-11-19T10:45:22;16.00;99.90
10583;DHT22;33679;51.218;6.786;2023-11-19T10:47:55;16.00;99.90
10583;DHT22;33679;51.218;6.786;2023-11-19T10:50:29;15.90;99.90
10583;DHT22;33679;51.218;6.786;2023-11-19T10:53:02;16.00;99.90
10583;DHT22;33679;51.218;6.786;2023-11-19T10:55:36;16.00;99.90
10583;DHT22;33679;51.218;6.786;2023-11-19T10:58:11;16.00;99.90
10583;DHT22;33679;51.218;6.786;2023-11-19T11:00:45;16.10;99.90
10583;DHT22;33679;51.218;6.786;2023-11-19T11:03:20;16.10;99.90
10583;DHT22;33679;51.218;6.786;2023-11-19T11:05:56;16.10;99.90
10583;DHT22;33679;51.218;6.786;2023-11-19T11:08:32;16.20;99.90
10583;DHT22;33679;51.218;6.786;2023-11-19T11:11:13;16.20;99.90
10583;DHT22;33679;51.218;6.786;2023-11-19T11:13:50;16.20;99.90
10583;DHT22;33679;51.218;6.786;2023-11-19T11:16:26;16.20;99.90
10583;DHT22;33679;51.218;6.786;2023-11-19T11:19:15;16.30;99.90
10583;DHT22;33679;51.218;6.786;2023-11-19T11:21:52;16.30;99.90
10583;DHT22;33679;51.218;6.786;2023-11-19T11:24:47;16.30;99.90
10583;DHT22;33679;51.218;6.786;2023-11-19T11:27:41;16.30;99.90
10583;DHT22;33679;51.218;6.786;2023-11-19T11:30:26;16.20;99.90
10583;DHT22;33679;51.218;6.786;2023-11-19T11:33:17;16.20;99.90
10583;DHT22;33679;51.218;6.786;2023-11-19T11:36:02;16.10;99.90
10583;DHT22;33679;51.218;6.786;2023-11-19T11:38:53;16.10;99.90
10583;DHT22;33679;51.218;6.786;2023-11-19T11:41:31;16.10;99.90
10583;DHT22;33679;51.218;6.786;2023-11-19T11:44:05;16.20;99.90
10583;DHT22;33679;51.218;6.786;2023-11-19T11:46:58;16.10;99.90
10583;DHT22;33679;51.218;6.786;2023-11-19T11:49:32;16.10;99.90
10583;DHT22;33679;51.218;6.786;2023-11-19T11:52:13;16.10;99.90
10583;DHT22;33679;51.218;6.786;2023-11-19T11:54:47;16.10;99.90
10583;DHT22;33679;51.218;6.786;2023-11-19T11:57:20;16.10;99.90
10583;DHT22;33679;51.218;6.786;2023-11-19T12:00:02;16.10;99.90
10583;DHT22;33679;51.218;6.786;2023-11-19T12:02:48;16.10;99.90
10583;DHT22;33679;51.218;6.786;2023-11-19T12:05:21;16.10;99.90
10583;DHT22;33679;51.218;6.786;2023-11-19T12:07:56;16.00;99.90
10583;DHT22;33679;51.218;6.786;2023-11-19T12:10:32;16.00;99.90
10583;DHT22;33679;51.218;6.786;2023-11-19T12:13:22;16.00;99.90
10583;DHT22;33679;51.218;6.786;2023-11-19T12:16:09;16.20;99.90
10583;DHT22;33679;51.218;6.786;2023-11-19T12:18:45;16.30;99.90
10583;DHT22;33679;51.218;6.786;2023-11-19T12:21:28;16.30;99.90
10583;DHT22;33679;51.218;6.786;2023-11-19T12:24:02;16.30;99.90
10583;DHT22;33679;51.218;6.786;2023-11-19T12:26:39;16.30;99.90
10583;DHT22;33679;51.218;6.786;2023-11-19T12:29:13;16.30;99.90
10583;DHT22;33679;51.218;6.786;2023-11-19T12:31:54;16.30;99.90
10583;DHT22;33679;51.218;6.786;2023-11-19T12:34:39;16.30;99.90
10583;DHT22;33679;51.218;6.786;2023-11-19T12:37:15;16.50;99.90
10583;DHT22;33679;51.218;6.786;2023-11-19T12:39:51;16.40;99.90
10583;DHT22;33679;51.218;6.786;2023-11-19T12:42:35;16.40;99.90
10583;DHT22;33679;51.218;6.786;2023-11-19T12:45:08;16.40;99.90
10583;DHT22;33679;51.218;6.786;2023-11-19T12:47:43;16.30;99.90
10583;DHT22;33679;51.218;6.786;2023-11-19T12:50:19;16.30;99.90
10583;DHT22;33679;51.218;6.786;2023-11-19T12:52:58;16.20;99.90
10583;DHT22;33679;51.218;6.786;2023-11-19T12:55:31;16.10;99.90
10583;DHT22;33679;51.218;6.786;2023-11-19T12:58:05;16.20;99.90
10583;DHT22;33679;51.218;6.786;2023-11-19T13:00:37;16.20;99.90
10583;DHT22;33679;51.218;6.786;2023-11-19T13:03:13;16.10;99.90
10583;DHT22;33679;51.218;6.786;2023-11-19T13:06:06;16.20;99.90
10583;DHT22;33679;51.218;6.786;2023-11-19T13:08:40;16.20;99.90
10583;DHT22;33679;51.218;6.786;2023-11-19T13:11:33;16.20;99.90
10583;DHT22;33679;51.218;6.786;2023-11-19T13:14:06;16.20;99.90
10583;DHT22;33679;51.218;6.786;2023-11-19T13:16:40;16.20;99.90
10583;DHT22;33679;51.218;6.786;2023-11-19T13:19:13;16.20;99.90
10583;DHT22;33679;51.218;6.786;2023-11-19T13:21:54;16.20;99.90
10583;DHT22;33679;51.218;6.786;2023-11-19T13:24:27;16.20;99.90
10583;DHT22;33679;51.218;6.786;2023-11-19T13:27:00;16.20;99.90
10583;DHT22;33679;51.218;6.786;2023-11-19T13:29:32;16.20;99.90
10583;DHT22;33679;51.218;6.786;2023-11-19T13:32:06;16.10;99.90
10583;DHT22;33679;51.218;6.786;2023-11-19T13:34:39;16.10;99.90
10583;DHT22;33679;51.218;6.786;2023-11-19T13:37:15;16.10;99.90
10583;DHT22;33679;51.218;6.786;2023-11-19T13:39:48;16.10;99.90
10583;DHT22;33679;51.218;6.786;2023-11-19T13:42:22;16.10;99.90
10583;DHT22;33679;51.218;6.786;2023-11-19T13:44:55;16.10;99.90
10583;DHT22;33679;51.218;6.786;2023-11-19T13:47:28;16.10;99.90
10583;DHT22;33679;51.218;6.786;2023-11-19T13:50:00;16.10;99.90
10583;DHT22;33679;51.218;6.786;2023-11-19T13:52:34;16.10;99.90
10583;DHT22;33679;51.218;6.786;2023-11-19T13:55:10;16.10;99.90
10583;DHT22;33679;51.218;6.786;2023-11-19T13:57:43;16.00;99.90
10583;DHT22;33679;51.218;6.786;2023-11-19T14:00:16;16.00;99.90
10583;DHT22;33679;51.218;6.786;2023-11-19T14:02:49;16.00;99.90
10583;DHT22;33679;51.218;6.786;2023-11-19T14:05:23;16.00;99.90
10583;DHT22;33679;51.218;6.786;2023-11-19T14:07:57;16.10;99.90
10583;DHT22;33679;51.218;6.786;2023-11-19T14:10:29;16.00;99.90
10583;DHT22;33679;51.218;6.786;2023-11-19T14:13:04;16.00;99.90
10583;DHT22;33679;51.218;6.786;2023-11-19T14:15:39;16.00;99.90
10583;DHT22;33679;51.218;6.786;2023-11-19T14:18:12;15.90;99.90
10583;DHT22;33679;51.218;6.786;2023-11-19T14:20:45;15.80;99.90
10583;DHT22;33679;51.218;6.786;2023-11-19T14:23:19;15.80;99.90
10583;DHT22;33679;51.218;6.786;2023-11-19T14:25:51;15.80;99.90
10583;DHT22;33679;51.218;6.786;2023-11-19T14:28:23;15.80;99.90
10583;DHT22;33679;51.218;6.786;2023-11-19T14:30:57;15.80;99.90
10583;DHT22;33679;51.218;6.786;2023-11-19T14:33:29;15.70;99.90
10583;DHT22;33679;51.218;6.786;2023-11-19T14:36:04;15.70;99.90
10583;DHT22;33679;51.218;6.786;2023-11-19T14:38:39;15.60;99.90
10583;DHT22;33679;51.218;6.786;2023-11-19T14:41:11;15.60;99.90
10583;DHT22;33679;51.218;6.786;2023-11-19T14:43:43;15.50;99.90
10583;DHT22;33679;51.218;6.786;2023-11-19T14:46:16;15.50;99.90
10583;DHT22;33679;51.218;6.786;2023-11-19T14:48:48;15.40;99.90
10583;DHT22;33679;51.218;6.786;2023-11-19T14:51:20;15.40;99.90
10583;DHT22;33679;51.218;6.786;2023-11-19T14:53:54;15.50;99.90
10583;DHT22;33679;51.218;6.786;2023-11-19T14:56:26;15.40;99.90
10583;DHT22;33679;51.218;6.786;2023-11-19T14:58:58;15.40;99.90
10583;DHT22;33679;51.218;6.786;2023-11-19T15:01:31;15.40;99.90
10583;DHT22;33679;51.218;6.786;2023-11-19T15:04:03;15.40;99.90
10583;DHT22;33679;51.218;6.786;2023-11-19T15:06:36;15.40;99.90
10583;DHT22;33679;51.218;6.786;2023-11-19T15:09:09;15.40;99.90
10583;DHT22;33679;51.218;6.786;2023-11-19T15:11:47;15.40;99.90
10583;DHT22;33679;51.218;6.786;2023-11-19T15:14:20;15.40;99.90
10583;DHT22;33679;51.218;6.786;2023-11-19T15:16:52;15.30;99.90
10583;DHT22;33679;51.218;6.786;2023-11-19T15:19:27;15.20;99.90
10583;DHT22;33679;51.218;6.786;2023-11-19T15:22:00;15.20;99.90
10583;DHT22;33679;51.218;6.786;2023-11-19T15:24:36;15.10;99.90
10583;DHT22;33679;51.218;6.786;2023-11-19T15:27:10;15.00;99.90
10583;DHT22;33679;51.218;6.786;2023-11-19T15:29:43;14.90;99.90
10583;DHT22;33679;51.218;6.786;2023-11-19T15:32:15;14.90;99.90
10583;DHT22;33679;51.218;6.786;2023-11-19T15:34:48;14.90;99.90
10583;DHT22;33679;51.218;6.786;2023-11-19T15:37:21;14.90;99.90
10583;DHT22;33679;51.218;6.786;2023-11-19T15:39:54;14.90;99.90
10583;DHT22;33679;51.218;6.786;2023-11-19T15:42:27;14.90;99.90
10583;DHT22;33679;51.218;6.786;2023-11-19T15:45:01;15.00;99.90
10583;DHT22;33679;51.218;6.786;2023-11-19T15:47:37;14.90;99.90
10583;DHT22;33679;51.218;6.786;2023-11-19T15:50:10;14.90;99.90
10583;DHT22;33679;51.218;6.786;2023-11-19T15:52:42;14.90;99.90
10583;DHT22;33679;51.218;6.786;2023-11-19T15:55:17;14.90;99.90
10583;DHT22;33679;51.218;6.786;2023-11-19T15:57:50;14.90;99.90
10583;DHT22;33679;51.218;6.786;2023-11-19T16:00:32;15.00;99.90
10583;DHT22;33679;51.218;6.786;2023-11-19T16:03:04;15.00;99.90
10583;DHT22;33679;51.218;6.786;2023-11-19T16:05:38;14.90;99.90
10583;DHT22;33679;51.218;6.786;2023-11-19T16:08:11;14.90;99.90
10583;DHT22;33679;51.218;6.786;2023-11-19T16:10:53;15.00;99.90
10583;DHT22;33679;51.218;6.786;2023-11-19T16:13:28;15.00;99.90
10583;DHT22;33679;51.218;6.786;2023-11-19T16:16:01;15.00;99.90
10583;DHT22;33679;51.218;6.786;2023-11-19T16:18:33;15.00;99.90